createdAt,value
2022-11-21T00:16:17.454Z,-1.9
2022-11-21T00:36:17.405Z,-1.84
2022-11-21T00:56:17.363Z,-1.91
2022-11-21T01:16:24.400Z,-1.87
2022-11-21T01:36:17.451Z,-1.84
2022-11-21T01:56:17.350Z,-1.79
2022-11-21T02:36:24.313Z,-1.91
2022-11-21T02:56:17.325Z,-1.84
2022-11-21T03:16:17.297Z,-1.81
2022-11-21T03:36:24.284Z,-1.72
2022-11-21T03:56:24.376Z,-1.69
2022-11-21T04:16:17.202Z,-1.7
2022-11-21T04:36:17.209Z,-1.69
2022-11-21T04:56:17.171Z,-1.74
2022-11-21T05:16:17.166Z,-1.8
2022-11-21T05:36:24.259Z,-1.81
2022-11-21T05:56:17.108Z,-1.82
2022-11-21T06:16:17.110Z,-1.8
2022-11-21T06:36:17.068Z,-1.82
2022-11-21T06:56:24.077Z,-2
2022-11-21T07:16:17.031Z,-2.15
2022-11-21T07:36:17.035Z,-1.98
2022-11-21T07:56:17.063Z,-1.51
2022-11-21T08:16:16.997Z,-1.23
2022-11-21T08:56:17.069Z,-0.27
2022-11-21T09:16:20.380Z,-0.26
2022-11-21T09:56:16.988Z,-1.07
2022-11-21T10:16:16.869Z,-1.09
2022-11-21T10:36:16.825Z,-0.82
2022-11-21T10:56:16.801Z,-0.61
2022-11-21T11:36:16.778Z,-0.48
2022-11-21T11:56:16.739Z,-0.65
2022-11-21T12:16:16.740Z,-0.42
2022-11-21T12:36:18.563Z,-0.29
2022-11-21T12:56:16.719Z,-0.09
2022-11-21T13:16:16.642Z,0
2022-11-21T13:36:16.667Z,0.19
2022-11-21T13:56:16.667Z,0.02
2022-11-21T14:16:16.592Z,0.07
2022-11-21T14:36:16.571Z,-0.43
2022-11-21T14:56:16.536Z,-0.9
2022-11-21T15:16:16.550Z,-1.24
2022-11-21T15:56:21.448Z,-1.87
2022-11-21T16:16:16.477Z,-1.82
2022-11-21T16:36:16.472Z,-1.65
2022-11-21T16:56:16.468Z,-1.33
2022-11-21T17:16:16.422Z,-1.07
2022-11-21T17:36:16.383Z,-0.91
2022-11-21T17:56:16.391Z,-0.74
2022-11-21T18:16:16.343Z,-0.68
2022-11-21T18:36:16.310Z,-0.63
2022-11-21T18:56:16.303Z,-0.56
2022-11-21T19:16:16.295Z,-0.52
2022-11-21T19:36:16.418Z,-0.57
2022-11-21T19:56:16.330Z,-0.68
2022-11-21T20:16:16.213Z,-0.65
2022-11-21T20:36:16.203Z,-0.91
2022-11-21T20:56:16.400Z,-0.95
2022-11-21T21:16:16.151Z,-1.19
2022-11-21T21:36:16.160Z,-1.42
2022-11-21T21:56:16.161Z,-1.75
2022-11-21T22:16:16.177Z,-1.96
2022-11-21T22:36:16.114Z,-2.1
2022-11-21T22:56:16.054Z,-2.19
2022-11-21T23:16:16.073Z,-2.11
2022-11-21T23:36:16.012Z,-2.16
2022-11-21T23:56:16.020Z,-2.2
